Stunt Ranch Reserve, Santa Monica Mtns, California Weather observations

Data are for 10 minute period ending at time listed.
 Day   Time   Solar   Ave.   Ave.  Ave.  Vector  Max.   Baro.   Total    
  of    of     Rad.   Air    Rel.  Wind   Wind   Wind  Press.  Precip.   
Year   Day            Temp.  Hum.  Speed  Dir.   Gust                    
2015   (PST)  Kw/m2    F      %     mph   deg.    mph    mb.     in.     
-------------------------------------------------------------------------
 243    7:10   0.27   71.4    66    1.8   288     2.4   966.5    0.00 
 243    7:20   0.31   71.8    65    1.3   304     1.8   966.5    0.00 
 243    7:30   0.34   72.2    63    1.4   297     3.0   966.5    0.00 
 243    7:40   0.38   74.0    61    3.0   288     4.7   966.5    0.00 
 243    7:50   0.41   75.2    60    1.4   299     3.1   966.8    0.00 
 243    8:00   0.44   74.1    63    2.4   287     4.9   966.8    0.00 
 243    8:10   0.48   75.0    61    2.9   288     5.1   966.5    0.00 
 243    8:20   0.51   75.7    60    2.7   292     5.3   966.5    0.00 
 243    8:30   0.54   76.7    58    2.8   290     5.9   966.5    0.00 
 243    8:40   0.57   77.5    57    2.2   282     6.0   966.5    0.00 
 243    8:50   0.60   77.6    58    2.7   302     5.1   966.5    0.00 
 243    9:00   0.63   78.7    56    3.1   284     6.4   966.5    0.00 
 243    9:10   0.66   79.4    55    3.7   284     6.6   966.5    0.00 
 243    9:20   0.69   80.0    55    3.2   296     6.9   966.5    0.00 
 243    9:30   0.71   81.0    53    3.3   293     7.5   966.8    0.00 
 243    9:40   0.73   81.3    53    3.4   285     7.6   966.8    0.00 
 243    9:50   0.76   82.2    53    4.1   283     9.1   966.8    0.00 
 243   10:00   0.78   82.0    54    4.8   278     9.2   966.8    0.00 
 243   10:10   0.80   82.1    54    3.7   285     9.3   967.2    0.00 
 243   10:20   0.81   82.6    53    4.5   290     8.3   967.2    0.00 
 243   10:30   0.83   82.1    54    4.1   292     9.3   967.2    0.00 
 243   10:40   0.84   82.3    53    4.4   287     8.6   967.2    0.00 
 243   10:50   0.86   83.4    51    4.8   285    10.0   967.2    0.00 
 243   11:00   0.87   82.9    52    4.1   307     8.9   967.2    0.00 
 243   11:10   0.88   83.3    52    4.6   295     9.6   967.2    0.00 
 243   11:20   0.89   82.6    53    5.5   293    10.0   967.2    0.00 
 243   11:30   0.89   83.6    51    3.5   292     8.3   966.8    0.00 
 243   11:40   0.90   84.2    50    4.5   292     9.1   966.8    0.00 
 243   11:50   0.90   84.3    49    3.9   288     7.9   966.8    0.00 
 243   12:00   0.90   84.5    49    3.5   292     8.4   966.8    0.00 
 243   12:10   0.89   84.9    48    3.3   304     7.1   966.8    0.00 
 243   12:20   0.89   85.7    47    4.5   287     8.8   966.8    0.00 
 243   12:30   0.89   84.8    48    4.6   283     9.7   966.8    0.00 
 243   12:40   0.89   84.5    48    4.8   283     8.7   966.8    0.00 
 243   12:50   0.85   84.7    47    4.5   290     9.0   966.8    0.00 
 243   13:00   0.86   84.6    47    4.6   290     8.5   966.5    0.00 
 243   13:10   0.86   84.8    47    4.3   291     8.6   966.5    0.00 
 243   13:20   0.84   85.5    46    5.1   288     8.8   966.5    0.00 
 243   13:30   0.83   85.2    46    4.7   289     8.4   966.5    0.00 
 243   13:40   0.81   85.5    45    4.4   284     9.3   966.5    0.00 
 243   13:50   0.79   85.6    44    4.8   287     8.5   966.1    0.00 
 243   14:00   0.78   85.7    44    5.1   280     8.8   966.1    0.00 
 243   14:10   0.75   86.8    42    4.4   282     8.3   966.1    0.00 
 243   14:20   0.73   87.3    41    3.9   290     9.2   966.1    0.00 
 243   14:30   0.70   86.8    42    3.8   289     7.8   965.8    0.00 
 243   14:40   0.67   85.6    43    3.3   303     7.6   965.8    0.00 
 243   14:50   0.64   86.0    43    3.5   284     9.3   965.8    0.00 
 243   15:00   0.61   85.0    44    4.1   315     8.0   965.8    0.00 
 243   15:10   0.58   83.9    45    3.4   311     7.7   965.8    0.00 
 243   15:20   0.55   84.4    44    3.3   288     7.3   965.5    0.00 
 243   15:30   0.52   85.2    43    3.4   301     7.7   965.5    0.00 
 243   15:40   0.49   84.9    43    3.2   293     7.6   965.5    0.00 
 243   15:50   0.45   85.1    41    3.7   298     8.5   965.5    0.00 
 243   16:00   0.42   84.2    43    2.9   295     7.9   965.5    0.00 
 243   16:10   0.39   84.2    45    3.4   301     7.8   965.5    0.00 
 243   16:20   0.35   83.6    47    3.2   291     7.5   965.5    0.00 
 243   16:30   0.32   83.4    47    2.8   288     8.8   965.1    0.00 
 243   16:40   0.28   83.2    48    2.6   291     6.1   965.1    0.00 
 243   16:50   0.25   83.0    48    2.9   284     7.2   965.1    0.00 
 243   17:00   0.21   83.1    48    2.9   293     7.2   965.1    0.00 
 243   17:10   0.18   82.1    50    2.3   287     6.5   965.1    0.00 
 243   17:20   0.15   81.5    51    2.0   285     5.5   964.8    0.00 
 243   17:30   0.12   79.9    54    2.4   283     6.0   964.8    0.00 
 243   17:40   0.10   77.9    57    2.5   283     4.6   964.4    0.00 
 243   17:50   0.06   76.9    59    2.0   282     4.7   964.4    0.00 
 243   18:00   0.02   75.8    60    2.4   281     5.0   964.4    0.00 
 243   18:10   0.01   74.9    62    2.2   277     4.5   964.1    0.00 
 243   18:20   0.01   73.9    64    1.6   268     3.7   964.4    0.00 
 243   18:30   0.00   72.3    67    2.1   257     3.4   964.4    0.00 
 243   18:40   0.00   71.0    69    1.5   260     2.5   964.4    0.00 
 243   18:50   0.00   70.3    70    1.4   260     2.6   964.4    0.00 
 243   19:00   0.00   69.9    71    0.9   256     3.7   964.8    0.00 
 243   19:10   0.00   69.2    72    1.0   270     3.0   965.1    0.00 
 243   19:20   0.00   68.4    73    0.5   234     2.4   965.5    0.00 
 243   19:30   0.00   67.9    73    1.4   247     3.8   965.5    0.00 
 243   19:40   0.00   67.8    75    1.6   227     3.1   965.5    0.00 
 243   19:50   0.00   67.2    75    1.8   201     3.4   965.8    0.00 
 243   20:00   0.00   66.9    77    1.2   188     2.4   966.1    0.00 
 243   20:10   0.00   66.7    78    0.2   180     1.0   966.1    0.00 
 243   20:20   0.00   66.4    79    0.2   207     1.1   966.1    0.00 
 243   20:30   0.00   66.1    79    0.7   189     1.4   966.1    0.00 
 243   20:40   0.00   65.9    79    0.4   182     1.4   966.5    0.00 
 243   20:50   0.00   65.8    80    0.5   195     1.7   966.5    0.00 
 243   21:00   0.00   65.5    80    0.0   239     0.8   966.5    0.00 
 243   21:10   0.00   65.1    79    0.2   264     0.9   966.5    0.00 
 243   21:20   0.00   64.8    82    1.7   249     2.8   966.5    0.00 
 243   21:30   0.00   64.3    80    1.6   232     3.2   966.5    0.00 
 243   21:40   0.00   63.5    75    1.0   180     2.0   966.5    0.00 
 243   21:50   0.00   63.6    74    2.0   147     3.1   966.5    0.00 
 243   22:00   0.00   63.8    70    2.4   123     4.5   966.8    0.00 
 243   22:10   0.00   64.0    71    1.4   110     3.2   966.8    0.00 
 243   22:20   0.00   63.3    71    2.0   119     4.8   966.8    0.00 
 243   22:30   0.00   62.4    73    1.6   148     3.1   966.8    0.00 
 243   22:40   0.00   62.6    75    0.9    84     2.1   966.8    0.00 
 243   22:50   0.00   62.4    78    1.7   263     2.3   966.8    0.00 
 243   23:00   0.00   62.2    77    1.2   248     2.2   966.8    0.00 
 243   23:10   0.00   61.9    74    1.0   131     3.4   966.8    0.00 
 243   23:20   0.00   61.5    76    2.5   151     4.4   967.2    0.00 
 243   23:30   0.00   61.7    80    3.1   135     7.2   967.2    0.00 
 243   23:40   0.00   61.4    79    1.3   195     2.6   967.2    0.00 
 243   23:50   0.00   61.2    82    1.5   139     2.9   967.2    0.00 
 244    0:00   0.00   61.4    84    1.7   108     3.8   967.2    0.00 
 244    0:10   0.00   60.4    84    3.6   147     6.4   967.2    0.00 
 244    0:20   0.00   60.5    85    2.2   153     6.2   967.2    0.00 
 244    0:30   0.00   61.4    85    0.6   194     2.2   967.2    0.00 
 244    0:40   0.00   61.1    85    0.7   190     1.6   967.2    0.00 
 244    0:50   0.00   61.5    88    0.4    94     2.6   967.2    0.00 
 244    1:00   0.00   60.8    86    3.7   197     5.3   966.8    0.00 
 244    1:10   0.00   60.5    85    2.5   168     4.9   966.8    0.00 
 244    1:20   0.00   60.9    86    1.3   196     2.6   966.8    0.00 
 244    1:30   0.00   61.3    88    0.9    75     2.9   966.5    0.00 
 244    1:40   0.00   61.4    87    1.0   168     2.1   966.5    0.00 
 244    1:50   0.00   61.4    86    1.6   150     4.0   966.5    0.00 
 244    2:00   0.00   62.4    88    4.9   148     9.8   966.5    0.00 
 244    2:10   0.00   63.6    84    5.8   116    10.4   966.5    0.00 
 244    2:20   0.00   63.8    83    4.7   113     6.8   966.5    0.00 
 244    2:30   0.00   63.9    83    3.8    84     6.6   966.5    0.00 
 244    2:40   0.00   63.3    84    3.4   124     6.3   966.5    0.00 
 244    2:50   0.00   63.4    83    6.5   132    10.7   966.5    0.00 
 244    3:00   0.00   64.0    82    7.7   120    11.5   966.8    0.00 
 244    3:10   0.00   64.2    80    4.3   140     8.9   966.8    0.00 
 244    3:20   0.00   64.6    80    2.0   100     4.0   966.8    0.00 
 244    3:30   0.00   64.3    83    2.3    44     5.0   966.8    0.00 
 244    3:40   0.00   64.0    85    3.3    64     5.8   966.8    0.00 
 244    3:50   0.00   64.0    85    2.1    87     6.1   966.8    0.00 
 244    4:00   0.00   64.3    84    0.9   122     3.7   966.8    0.00 
 244    4:10   0.00   64.3    84    2.9    49     6.3   966.8    0.00 
 244    4:20   0.00   64.1    85    2.4    81     7.1   966.8    0.00 
 244    4:30   0.00   64.2    84    2.1    86     6.5   966.8    0.00 
 244    4:40   0.00   64.3    82    3.8    68     8.0   966.8    0.00 
 244    4:50   0.00   64.4    80    4.9   109    10.2   966.8    0.00 
 244    5:00   0.00   64.4    79    3.3   104     6.7   966.8    0.00 
 244    5:10   0.00   64.5    78    3.5   115     6.9   966.8    0.00 
 244    5:20   0.00   64.6    80    1.3    86     3.7   966.8    0.00 
 244    5:30   0.00   64.6    80    2.6    66     9.7   967.2    0.00 
 244    5:40   0.01   64.7    78    4.4   101     9.7   967.2    0.00 
 244    5:50   0.01   64.9    77    5.5   110    10.0   967.2    0.00 
 244    6:00   0.01   64.9    79    3.4    63     6.4   967.2    0.00 
 244    6:10   0.02   64.8    79    2.5    82     5.6   967.2    0.00 
 244    6:20   0.03   65.1    79    2.8    62     6.4   967.2    0.00 
 244    6:30   0.03   65.0    77    5.0    92    11.3   967.5    0.00 
 244    6:40   0.05   65.2    76    5.2    75     9.1   967.5    0.00 
 244    6:50   0.07   65.5    76    5.0    64     9.1   967.5    0.00 
 244    7:00   0.07   65.8    75    5.7    69     9.7   967.8    0.00 

Return to Stunt Ranch Reserve graphs page.


Western Regional Climate Center,wrcc@dri.edu